Time;durP1;ratioP1;P1;durP2;ratioP2;P2;SDS_P1;SDS_P2;PMS_P1;PMS_P2;Temp;Humidity;BMP_temperature;BMP_pressure;BME280_temperature;BME280_humidity;BME280_pressure;Samples;Min_cycle;Max_cycle;Signal;HPM_P1;HPM_P2
2023/12/20 00:01:59;;;;;;;1.37;1.27;;;4.60;99.90;;;5.11;100.00;98101.28;5053158;28;20461;-77
2023/12/20 00:04:27;;;;;;;1.40;1.30;;;4.60;99.90;;;5.10;100.00;98096.25;5052976;28;20502;-76
2023/12/20 00:06:56;;;;;;;1.43;1.10;;;4.60;99.90;;;5.13;100.00;98099.38;5055263;28;20490;-76
2023/12/20 00:09:24;;;;;;;1.30;1.20;;;4.60;99.90;;;5.10;100.00;98078.94;5054933;28;20547;-76
2023/12/20 00:11:53;;;;;;;1.10;1.00;;;4.70;99.90;;;5.11;100.00;98080.53;5052701;28;21200;-76
2023/12/20 00:14:21;;;;;;;1.10;1.00;;;4.60;99.90;;;5.12;100.00;98089.94;5052741;28;20469;-76
2023/12/20 00:16:51;;;;;;;1.20;1.10;;;4.60;99.90;;;5.13;100.00;98086.41;5054463;28;20453;-76
2023/12/20 00:19:20;;;;;;;6.83;1.33;;;4.60;99.90;;;5.15;100.00;98086.22;5054191;28;20544;-76
2023/12/20 00:21:49;;;;;;;1.53;1.43;;;4.60;99.90;;;5.12;100.00;98084.75;5053831;28;20995;-77
2023/12/20 00:24:17;;;;;;;1.30;1.20;;;4.60;99.90;;;5.12;100.00;98077.00;5054645;28;20460;-76
2023/12/20 00:26:46;;;;;;;1.80;1.10;;;4.70;99.90;;;5.12;100.00;98071.81;5055889;28;20554;-76
2023/12/20 00:29:15;;;;;;;1.10;1.00;;;4.60;99.90;;;5.12;100.00;98071.81;5055063;28;20465;-76
2023/12/20 00:31:43;;;;;;;1.27;1.10;;;4.60;99.90;;;5.12;100.00;98061.44;5055315;28;20465;-76
2023/12/20 00:34:13;;;;;;;1.53;1.37;;;4.60;99.90;;;5.11;100.00;98071.94;5052796;28;20458;-77
2023/12/20 00:36:42;;;;;;;1.47;1.20;;;4.60;99.90;;;5.08;100.00;98071.31;5052306;28;20488;-76
2023/12/20 00:39:10;;;;;;;1.77;1.20;;;4.60;99.90;;;5.12;100.00;98069.22;5052972;28;20838;-76
2023/12/20 00:41:39;;;;;;;1.50;1.40;;;4.60;99.90;;;5.12;100.00;98056.25;5053043;28;20495;-76
2023/12/20 00:44:07;;;;;;;1.50;1.40;;;4.50;99.90;;;5.12;100.00;98056.25;5052904;28;20464;-76
2023/12/20 00:46:36;;;;;;;1.30;1.20;;;4.50;99.90;;;5.14;100.00;98059.50;5054491;28;20461;-76
2023/12/20 00:49:05;;;;;;;1.97;1.60;;;4.50;99.90;;;5.12;100.00;98053.66;5053011;28;20475;-76
2023/12/20 00:51:35;;;;;;;1.40;1.30;;;4.40;99.90;;;5.13;100.00;98063.09;5051513;28;20484;-76
2023/12/20 00:54:03;;;;;;;1.27;1.17;;;4.50;99.90;;;5.12;100.00;98058.84;5053693;28;20483;-76
2023/12/20 00:56:32;;;;;;;2.53;1.30;;;4.50;99.90;;;5.13;100.00;98060.50;5054175;28;20463;-76
2023/12/20 00:59:00;;;;;;;1.60;1.30;;;4.50;99.90;;;5.12;100.00;98061.44;5051322;28;20525;-76
2023/12/20 01:01:29;;;;;;;1.30;1.20;;;4.50;99.90;;;5.11;100.00;98065.00;5051685;28;20503;-76
2023/12/20 01:03:57;;;;;;;1.37;1.27;;;4.50;99.90;;;5.10;100.00;98063.38;5053536;28;20463;-76
2023/12/20 01:06:26;;;;;;;1.60;1.10;;;4.40;99.90;;;5.12;100.00;98064.03;5056481;28;20468;-76
2023/12/20 01:08:56;;;;;;;1.73;1.40;;;4.50;99.90;;;5.10;100.00;98065.97;5052446;28;20469;-76
2023/12/20 01:11:24;;;;;;;1.50;1.40;;;4.50;99.90;;;5.11;100.00;98066.75;5052309;28;20526;-76
2023/12/20 01:13:53;;;;;;;1.10;1.00;;;4.50;99.90;;;5.10;100.00;98065.97;5051353;28;20460;-76
2023/12/20 01:16:21;;;;;;;3.20;1.30;;;4.50;99.90;;;5.08;100.00;98065.31;5052527;28;20466;-76
2023/12/20 01:18:50;;;;;;;1.43;1.33;;;4.40;99.90;;;5.12;100.00;98065.81;5054050;28;20950;-76
2023/12/20 01:21:19;;;;;;;2.10;1.40;;;4.40;99.90;;;5.10;100.00;98068.56;5055192;28;20491;-76
2023/12/20 01:23:47;;;;;;;1.70;1.40;;;4.40;99.90;;;5.08;100.00;98060.94;5053703;28;20468;-76
2023/12/20 01:26:17;;;;;;;2.07;1.50;;;4.40;99.90;;;5.10;100.00;98052.19;5053250;28;20461;-76
2023/12/20 01:28:46;;;;;;;1.67;1.30;;;4.50;99.90;;;5.10;100.00;98041.84;5051872;28;20461;-76
2023/12/20 01:31:14;;;;;;;4.67;1.10;;;4.40;99.90;;;5.11;100.00;98044.25;5051667;28;20522;-76
2023/12/20 01:33:43;;;;;;;1.43;1.33;;;4.40;99.90;;;5.09;100.00;98056.56;5053601;28;20490;-76
2023/12/20 01:36:12;;;;;;;1.40;1.30;;;4.40;99.90;;;5.07;100.00;98063.66;5052641;28;21068;-76
2023/12/20 01:38:40;;;;;;;1.77;1.30;;;4.40;99.90;;;5.07;100.00;98061.88;5052270;28;20533;-76
2023/12/20 01:41:09;;;;;;;1.57;1.10;;;4.30;99.90;;;5.06;100.00;98062.06;5051310;28;21032;-75
2023/12/20 01:43:38;;;;;;;1.43;1.33;;;4.30;99.90;;;5.07;100.00;98068.84;5052233;28;20954;-76
2023/12/20 01:46:19;;;;;;;0.90;0.90;;;4.30;99.90;;;5.08;100.00;98086.84;5052111;28;20473;-76
2023/12/20 01:48:48;;;;;;;1.60;1.40;;;4.40;99.90;;;5.07;100.00;98092.16;5051697;28;21040;-76
2023/12/20 01:51:17;;;;;;;1.60;1.40;;;4.30;99.90;;;5.06;100.00;98082.78;5051459;28;20488;-76
2023/12/20 01:53:47;;;;;;;1.23;0.90;;;4.30;99.90;;;5.07;100.00;98066.25;5053996;28;20471;-76
2023/12/20 01:56:17;;;;;;;1.00;0.90;;;4.30;99.90;;;5.07;100.00;98061.06;5051240;28;20836;-76
2023/12/20 01:58:49;;;;;;;4.40;1.43;;;4.40;99.90;;;5.06;100.00;98072.44;5052784;28;20456;-76
2023/12/20 02:01:18;;;;;;;1.23;1.13;;;4.40;99.90;;;5.04;100.00;98058.78;5049701;28;20485;-76
2023/12/20 02:03:48;;;;;;;1.00;0.90;;;4.30;99.90;;;5.05;100.00;98066.41;5055450;28;20485;-77
2023/12/20 02:06:19;;;;;;;1.37;1.27;;;4.30;99.90;;;5.05;100.00;98066.41;5055075;28;20549;-76
2023/12/20 02:08:47;;;;;;;0.90;0.90;;;4.30;99.90;;;5.07;100.00;98055.88;5056879;28;20460;-76
2023/12/20 02:11:16;;;;;;;1.47;1.20;;;4.40;99.90;;;5.06;100.00;98062.06;5054303;28;20505;-76
2023/12/20 02:13:46;;;;;;;1.10;1.00;;;4.30;99.90;;;5.06;100.00;98064.66;5054756;28;20862;-76
2023/12/20 02:16:14;;;;;;;5.07;1.13;;;4.40;99.90;;;5.06;100.00;98062.06;5057159;28;20468;-76
2023/12/20 02:18:44;;;;;;;1.20;1.10;;;4.30;99.90;;;5.06;100.00;98049.91;5057224;28;20471;-76
2023/12/20 02:21:13;;;;;;;1.10;1.00;;;4.30;99.90;;;5.07;100.00;98053.31;5056666;28;20493;-76
2023/12/20 02:23:43;;;;;;;1.13;0.93;;;4.40;99.90;;;5.07;100.00;98056.72;5055583;28;21048;-77
2023/12/20 02:26:13;;;;;;;0.90;0.90;;;4.30;99.90;;;5.07;100.00;98067.06;5057281;28;20452;-77
2023/12/20 02:28:42;;;;;;;1.43;0.97;;;4.30;99.90;;;5.10;100.00;98094.47;5055487;28;20484;-76
2023/12/20 02:31:10;;;;;;;1.20;1.10;;;4.30;99.90;;;5.08;100.00;98073.06;5058958;28;20468;-76
2023/12/20 02:33:39;;;;;;;0.90;0.90;;;4.30;99.90;;;5.08;100.00;98057.53;5056794;28;20460;-77
2023/12/20 02:36:08;;;;;;;2.30;0.90;;;4.30;99.90;;;5.08;100.00;98062.72;5055689;28;20486;-76
2023/12/20 02:38:36;;;;;;;1.50;1.10;;;4.30;99.90;;;5.10;100.00;98071.16;5056838;28;20460;-76
2023/12/20 02:41:06;;;;;;;3.60;1.13;;;4.40;99.90;;;5.10;100.00;98073.75;5057219;28;20464;-76
2023/12/20 02:43:35;;;;;;;1.53;1.07;;;4.40;99.90;;;5.08;100.00;98062.72;5055517;28;20495;-76
2023/12/20 02:46:03;;;;;;;1.70;1.00;;;4.40;99.90;;;5.09;100.00;98061.75;5056933;28;20461;-76
2023/12/20 02:48:32;;;;;;;1.10;1.00;;;4.30;99.90;;;5.06;100.00;98068.06;5057428;28;20542;-76
2023/12/20 02:51:00;;;;;;;0.97;0.97;;;4.30;99.90;;;5.07;100.00;98061.06;5055889;28;20476;-76
2023/12/20 02:53:29;;;;;;;1.10;1.00;;;4.30;99.90;;;5.07;100.00;98067.06;5056976;28;20457;-76
2023/12/20 02:55:58;;;;;;;0.80;0.80;;;4.30;99.90;;;5.06;100.00;98073.25;5056101;28;20496;-76
2023/12/20 02:58:27;;;;;;;3.13;0.97;;;4.40;99.90;;;5.07;100.00;98074.03;5055678;28;20984;-76
2023/12/20 03:00:56;;;;;;;0.97;0.87;;;4.30;99.90;;;5.06;100.00;98073.25;5055455;28;20575;-76
2023/12/20 03:03:25;;;;;;;1.50;1.40;;;4.30;99.90;;;5.08;100.00;98075.66;5056167;28;21017;-76
2023/12/20 03:05:53;;;;;;;1.60;1.40;;;4.40;99.90;;;5.10;100.00;98073.75;5056072;28;20468;-76
2023/12/20 03:08:22;;;;;;;3.37;1.03;;;4.40;99.90;;;5.10;100.00;98078.13;5056022;28;20467;-77
2023/12/20 03:10:51;;;;;;;0.97;0.90;;;4.40;99.90;;;5.10;100.00;98076.34;5055695;28;20469;-76
2023/12/20 03:13:19;;;;;;;1.00;0.90;;;4.40;99.90;;;5.11;100.00;98085.72;5054149;28;20534;-76
2023/12/20 03:15:49;;;;;;;3.97;1.10;;;4.40;99.90;;;5.11;100.00;98090.09;5055433;28;20461;-76
2023/12/20 03:18:18;;;;;;;2.50;1.37;;;4.40;99.90;;;5.11;100.00;98083.13;5055263;28;20551;-76
2023/12/20 03:20:48;;;;;;;1.00;0.90;;;4.50;99.90;;;5.13;100.00;98086.41;5054511;28;20923;-76
2023/12/20 03:23:16;;;;;;;1.00;0.93;;;4.50;99.90;;;5.15;100.00;98086.22;5053788;28;20500;-76
2023/12/20 03:25:45;;;;;;;1.17;1.03;;;4.50;99.90;;;5.13;100.00;98083.81;5055337;28;20912;-76
2023/12/20 03:28:16;;;;;;;1.67;1.10;;;4.50;99.90;;;5.13;100.00;98091.59;5056142;28;20461;-76
2023/12/20 03:30:45;;;;;;;1.00;0.90;;;4.50;99.90;;;5.15;100.00;98102.59;5054028;28;20459;-76
2023/12/20 03:33:15;;;;;;;2.80;1.30;;;4.60;99.90;;;5.14;100.00;98103.56;5055455;28;20468;-76
2023/12/20 03:35:43;;;;;;;0.93;0.90;;;4.60;99.90;;;5.14;100.00;98103.56;5054680;28;20461;-76
2023/12/20 03:38:12;;;;;;;1.00;0.90;;;4.60;99.90;;;5.17;100.00;98105.88;5056417;28;20484;-76
2023/12/20 03:40:40;;;;;;;1.00;0.90;;;4.60;99.90;;;5.19;100.00;98098.75;5055872;28;20461;-76
2023/12/20 03:43:09;;;;;;;1.10;1.00;;;4.60;99.90;;;5.25;100.00;98105.91;5055921;28;20492;-76
2023/12/20 03:45:37;;;;;;;1.20;1.00;;;4.70;99.90;;;5.39;100.00;98105.34;5055043;28;20461;-74
2023/12/20 03:48:07;;;;;;;7.57;3.20;;;4.90;99.90;;;5.47;100.00;98107.19;5055146;28;20469;-77
2023/12/20 03:50:37;;;;;;;1.43;1.33;;;4.90;99.90;;;5.49;100.00;98100.06;5053318;28;20485;-76
2023/12/20 03:53:05;;;;;;;3.63;1.20;;;5.00;99.90;;;5.53;100.00;98101.38;5051066;28;20472;-76
2023/12/20 03:55:34;;;;;;;3.80;1.13;;;5.00;99.90;;;5.55;100.00;98100.25;5052738;28;20471;-76
2023/12/20 03:58:02;;;;;;;5.33;1.00;;;5.00;99.90;;;5.57;100.00;98108.72;5052420;28;20464;-76
2023/12/20 04:00:31;;;;;;;389.27;199.60;;;5.10;99.90;;;5.58;100.00;98101.75;5050600;28;20468;-76
2023/12/20 04:02:59;;;;;;;2.60;2.23;;;5.10;99.90;;;5.63;100.00;98111.63;5051564;28;20515;-76
2023/12/20 04:05:28;;;;;;;2.00;1.20;;;5.10;99.90;;;5.66;100.00;98129.50;5050208;28;20476;-76
2023/12/20 04:07:59;;;;;;;1.00;0.90;;;5.20;99.90;;;5.69;100.00;98126.59;5052606;28;20963;-75
2023/12/20 04:10:27;;;;;;;4.80;1.20;;;5.30;99.90;;;5.74;100.00;98124.34;5052861;28;20465;-76
2023/12/20 04:12:56;;;;;;;1.10;1.00;;;5.30;99.90;;;5.78;100.00;98130.84;5055353;28;20463;-77
2023/12/20 04:15:25;;;;;;;2.23;1.17;;;5.40;99.90;;;5.82;100.00;98129.59;5055116;28;20465;-76
2023/12/20 04:17:53;;;;;;;1.20;0.90;;;5.40;99.90;;;5.85;100.00;98137.06;5055259;28;20465;-76
2023/12/20 04:20:22;;;;;;;3.13;1.20;;;5.50;99.90;;;5.87;100.00;98142.91;5053403;28;20836;-77
2023/12/20 04:22:50;;;;;;;5.53;1.40;;;5.50;99.90;;;5.82;100.00;98145.16;5054093;28;20484;-77
2023/12/20 04:25:20;;;;;;;2.63;1.63;;;5.40;99.90;;;5.81;100.00;98139.16;5053554;28;20530;-77
2023/12/20 04:27:49;;;;;;;2.30;1.40;;;5.30;99.90;;;5.77;100.00;98155.16;5055017;28;20469;-77
2023/12/20 04:30:17;;;;;;;1.87;1.60;;;5.40;99.90;;;5.74;100.00;98163.25;5052791;28;20964;-77
2023/12/20 04:32:46;;;;;;;1.90;1.60;;;5.40;99.90;;;5.72;100.00;98153.06;5054119;28;20461;-77
2023/12/20 04:35:14;;;;;;;10.20;5.10;;;5.30;99.90;;;5.68;100.00;98161.28;5051029;28;20944;-77
2023/12/20 04:37:43;;;;;;;3.23;2.10;;;5.30;99.90;;;5.63;100.00;98163.50;5053010;28;20464;-77
2023/12/20 04:40:13;;;;;;;2.33;1.70;;;5.20;99.90;;;5.60;100.00;98156.84;5051780;28;20461;-77
2023/12/20 04:42:43;;;;;;;2.83;1.40;;;5.20;99.90;;;5.58;100.00;98161.41;5054458;28;20531;-76
2023/12/20 04:45:13;;;;;;;2.37;1.50;;;5.20;99.90;;;5.55;100.00;98172.88;5053549;28;20511;-77
2023/12/20 04:47:43;;;;;;;8.10;2.03;;;5.20;99.90;;;5.49;100.00;98178.66;5052728;28;20457;-77
2023/12/20 04:50:13;;;;;;;4.50;1.77;;;5.20;99.90;;;5.45;100.00;98185.13;5053477;28;20489;-76
2023/12/20 04:52:43;;;;;;;1.77;1.40;;;5.00;99.90;;;5.40;100.00;98205.50;5051615;28;20518;-77
2023/12/20 04:55:11;;;;;;;2.60;1.33;;;5.00;99.90;;;5.41;100.00;98198.56;5054453;28;20492;-77
2023/12/20 04:57:40;;;;;;;2.67;1.33;;;4.90;99.90;;;5.38;100.00;98196.28;5052058;28;21043;-77
2023/12/20 05:00:12;;;;;;;1.70;1.30;;;4.90;99.90;;;5.34;100.00;98195.75;5053234;28;21177;-77
2023/12/20 05:02:40;;;;;;;2.50;1.60;;;4.90;99.90;;;5.30;100.00;98194.41;5050920;28;20497;-77
2023/12/20 05:05:09;;;;;;;7.17;3.37;;;4.80;99.90;;;5.29;100.00;98205.75;5054929;28;20966;-77
2023/12/20 05:07:39;;;;;;;2.57;1.53;;;4.80;99.90;;;5.24;100.00;98194.22;5052797;28;20469;-77
2023/12/20 05:10:09;;;;;;;1.30;1.03;;;4.70;99.90;;;5.22;100.00;98204.72;5054119;28;20488;-76
2023/12/20 05:12:37;;;;;;;9.73;4.70;;;4.70;99.90;;;5.18;100.00;98205.97;5052107;28;22594;-77
2023/12/20 05:15:09;;;;;;;6.07;1.20;;;4.70;99.90;;;5.16;100.00;98202.72;5051956;28;20484;-77
2023/12/20 05:17:38;;;;;;;7.10;1.20;;;4.70;99.90;;;5.16;100.00;98201.91;5054119;28;20484;-77
2023/12/20 05:20:09;;;;;;;1.83;1.00;;;4.60;99.90;;;5.16;100.00;98207.09;5054524;28;20545;-77
2023/12/20 05:22:37;;;;;;;2.57;1.33;;;4.60;99.90;;;5.15;100.00;98195.91;5053449;28;21042;-77
2023/12/20 05:25:07;;;;;;;11.37;1.93;;;4.60;99.90;;;5.18;100.00;98194.78;5053606;28;20460;-78
2023/12/20 05:27:38;;;;;;;3.53;1.20;;;4.60;99.90;;;5.16;100.00;98201.91;5053040;28;20542;-77
2023/12/20 05:30:10;;;;;;;5.17;1.73;;;4.60;99.90;;;5.15;100.00;98205.44;5053626;28;20511;-75
2023/12/20 05:32:38;;;;;;;9.30;3.50;;;4.60;99.90;;;5.13;100.00;98203.03;5051692;28;20457;-77
2023/12/20 05:35:07;;;;;;;4.07;1.27;;;4.60;99.90;;;5.06;100.00;98209.78;5053652;28;21072;-76
2023/12/20 05:37:36;;;;;;;1.90;1.30;;;4.60;99.90;;;5.04;100.00;98219.44;5049547;28;20471;-77
2023/12/20 05:40:06;;;;;;;3.37;1.20;;;4.60;99.90;;;5.06;100.00;98209.78;5056707;28;20828;-77
2023/12/20 05:42:34;;;;;;;2.70;1.20;;;4.50;99.90;;;5.06;100.00;98213.19;5053239;28;20483;-77
2023/12/20 05:45:03;;;;;;;5.97;1.10;;;4.60;99.90;;;5.07;100.00;98219.16;5053218;28;20464;-77
2023/12/20 05:47:33;;;;;;;3.27;1.30;;;4.60;99.90;;;5.04;100.00;98222.84;5054295;28;20487;-77
2023/12/20 05:50:01;;;;;;;1.87;1.30;;;4.70;99.90;;;5.06;100.00;98218.34;5054001;28;20490;-77
2023/12/20 05:52:30;;;;;;;5.70;1.87;;;4.70;99.90;;;5.04;100.00;98217.66;5052450;28;20464;-77
2023/12/20 05:55:01;;;;;;;3.57;1.87;;;4.60;99.90;;;5.06;100.00;98228.72;5051206;28;20471;-78
2023/12/20 05:57:30;;;;;;;2.27;1.40;;;4.60;99.90;;;5.08;100.00;98210.41;5051361;28;20465;-78
2023/12/20 05:59:58;;;;;;;2.70;1.50;;;4.60;99.90;;;5.09;100.00;98232.78;5053576;28;20463;-77
2023/12/20 06:02:26;;;;;;;3.93;1.47;;;4.60;99.90;;;5.08;100.00;98236.34;5056637;28;20457;-77
2023/12/20 06:04:57;;;;;;;8.57;1.50;;;4.70;99.90;;;5.08;100.00;98231.16;5054189;28;20526;-77
2023/12/20 06:07:26;;;;;;;6.63;1.40;;;4.70;99.90;;;5.09;100.00;98232.78;5055314;28;21029;-77
2023/12/20 06:09:55;;;;;;;3.23;1.40;;;4.70;99.90;;;5.07;100.00;98232.09;5054395;28;20504;-77
2023/12/20 06:12:24;;;;;;;2.90;1.40;;;4.70;99.90;;;5.04;100.00;98235.00;5052974;28;20464;-77
2023/12/20 06:14:52;;;;;;;9.07;1.53;;;4.60;99.90;;;5.04;100.00;98224.63;5051829;28;20501;-78
2023/12/20 06:17:21;;;;;;;8.10;1.73;;;4.70;99.90;;;5.05;100.00;98228.84;5053346;28;20536;-76
2023/12/20 06:19:49;;;;;;;1.47;1.00;;;4.80;99.90;;;5.07;100.00;98229.50;5053391;28;20460;-77
2023/12/20 06:22:19;;;;;;;5.03;1.53;;;4.70;99.90;;;5.09;100.00;98235.38;5054136;28;20559;-77
2023/12/20 06:24:48;;;;;;;3.93;1.93;;;4.70;99.90;;;5.11;100.00;98245.59;5054097;28;20497;-77
2023/12/20 06:27:16;;;;;;;3.90;1.93;;;4.70;99.90;;;5.10;100.00;98241.38;5054676;28;20548;-77
2023/12/20 06:29:45;;;;;;;5.70;1.60;;;4.70;99.90;;;5.10;100.00;98243.97;5052758;28;20464;-77
2023/12/20 06:32:13;;;;;;;3.20;1.30;;;4.70;99.90;;;5.10;100.00;98244.78;5055498;28;20471;-77
2023/12/20 06:34:42;;;;;;;5.60;1.43;;;4.70;99.90;;;5.08;100.00;98252.69;5053402;28;20471;-77
2023/12/20 06:37:11;;;;;;;4.27;1.30;;;4.60;99.90;;;5.10;100.00;98246.56;5052405;28;20990;-77
2023/12/20 06:39:41;;;;;;;2.00;1.17;;;4.60;99.90;;;5.08;100.00;98237.16;5052484;28;20963;-77
2023/12/20 06:42:10;;;;;;;8.80;1.70;;;4.70;99.90;;;5.08;100.00;98234.56;5054370;28;20460;-78
2023/12/20 06:44:39;;;;;;;2.53;1.33;;;4.60;99.90;;;5.06;100.00;98233.91;5052101;28;20891;-77
2023/12/20 06:47:09;;;;;;;4.17;1.23;;;4.70;99.90;;;5.08;100.00;98231.16;5052909;28;20481;-77
2023/12/20 06:49:37;;;;;;;5.77;2.00;;;4.70;99.90;;;5.07;100.00;98229.50;5055023;28;20470;-77
2023/12/20 06:52:06;;;;;;;6.77;1.97;;;4.70;99.90;;;5.06;100.00;98228.72;5057225;28;20808;-77
2023/12/20 06:54:35;;;;;;;3.80;1.70;;;4.70;99.90;;;4.99;100.00;98239.81;5057241;28;20537;-77
2023/12/20 06:57:05;;;;;;;4.00;1.80;;;4.70;99.90;;;4.98;100.00;98231.22;5058839;28;20461;-78
2023/12/20 06:59:34;;;;;;;7.43;1.70;;;4.60;99.90;;;5.00;100.00;98246.59;5057120;28;20517;-78
2023/12/20 07:02:02;;;;;;;4.30;1.50;;;4.70;99.90;;;4.98;100.00;98251.97;5058304;28;20464;-77
2023/12/20 07:04:31;;;;;;;6.53;1.47;;;4.60;99.90;;;5.00;100.00;98260.38;5056694;28;20579;-78
2023/12/20 07:07:01;;;;;;;11.50;2.00;;;4.50;99.90;;;4.98;100.00;98251.97;5056826;28;21142;-77
2023/12/20 07:09:30;;;;;;;2.93;1.60;;;4.50;99.90;;;4.95;100.00;98256.63;5058018;28;20490;-78
2023/12/20 07:11:58;;;;;;;2.40;1.20;;;4.40;99.90;;;4.86;100.00;98247.13;5056973;28;20469;-77
2023/12/20 07:14:29;;;;;;;7.33;1.80;;;4.50;99.90;;;4.81;100.00;98260.53;5057166;28;20464;-78
2023/12/20 07:16:57;;;;;;;6.20;1.77;;;4.40;99.90;;;4.84;100.00;98259.41;5057920;28;21153;-78
2023/12/20 07:19:26;;;;;;;8.07;2.50;;;4.40;99.90;;;4.80;100.00;98260.66;5056937;28;20460;-78
2023/12/20 07:21:54;;;;;;;5.23;1.90;;;4.30;99.90;;;4.77;100.00;98269.53;5056998;28;20541;-77
2023/12/20 07:24:23;;;;;;;4.00;1.57;;;4.30;99.90;;;4.72;100.00;98274.31;5057981;28;20574;-77
2023/12/20 07:26:52;;;;;;;2.20;1.27;;;4.20;99.90;;;4.74;100.00;98274.19;5057414;28;20491;-77
2023/12/20 07:29:20;;;;;;;9.70;1.80;;;4.20;99.90;;;4.66;100.00;98268.91;5055426;28;20484;-77
2023/12/20 07:31:51;;;;;;;7.90;2.50;;;4.10;99.90;;;4.68;100.00;98274.78;5057290;28;20878;-77
2023/12/20 07:34:20;;;;;;;6.70;1.70;;;4.10;99.90;;;4.68;100.00;98264.41;5054532;28;20472;-77
2023/12/20 07:36:49;;;;;;;10.63;1.70;;;4.20;99.90;;;4.62;100.00;98270.19;5055840;28;20455;-78
2023/12/20 07:39:18;;;;;;;12.20;1.93;;;4.20;99.90;;;4.66;100.00;98271.50;5056350;28;20473;-77
2023/12/20 07:41:47;;;;;;;7.43;1.90;;;4.20;99.90;;;4.69;100.00;98268.63;5055904;28;20552;-77
2023/12/20 07:44:16;;;;;;;1.30;1.20;;;4.20;99.90;;;4.72;100.00;98276.13;5054094;28;21363;-77
2023/12/20 07:46:44;;;;;;;1.83;1.73;;;4.20;99.90;;;4.72;100.00;98276.13;5055298;28;20468;-77
2023/12/20 07:49:14;;;;;;;3.57;1.60;;;4.20;99.90;;;4.72;100.00;98284.69;5054698;28;20468;-77
2023/12/20 07:51:43;;;;;;;3.80;1.43;;;4.10;99.90;;;4.70;100.00;98289.19;5059324;28;20464;-77
2023/12/20 07:54:11;;;;;;;2.10;1.60;;;4.10;99.90;;;4.70;100.00;98303.91;5056196;28;20456;-78
2023/12/20 07:56:40;;;;;;;3.50;1.90;;;4.10;99.90;;;4.72;100.00;98296.84;5059370;28;20484;-77
2023/12/20 07:59:09;;;;;;;12.63;2.10;;;4.10;99.90;;;4.72;100.00;98291.66;5056483;28;20461;-77
2023/12/20 08:01:49;;;;;;;4.50;1.73;;;4.10;99.90;;;4.71;100.00;98284.84;5055959;28;20471;-77
2023/12/20 08:04:20;;;;;;;4.13;2.13;;;4.20;99.90;;;4.72;100.00;98289.06;5054986;28;20492;-77
2023/12/20 08:06:49;;;;;;;4.97;1.70;;;4.20;99.90;;;4.75;100.00;98296.56;5058305;28;21376;-77
2023/12/20 08:09:18;;;;;;;1.83;1.57;;;4.20;99.90;;;4.73;100.00;98299.28;5056350;28;20502;-77
2023/12/20 08:11:47;;;;;;;5.63;1.93;;;4.40;99.90;;;4.79;100.00;98290.13;5056661;28;20472;-77
2023/12/20 08:14:16;;;;;;;6.13;2.57;;;4.30;99.90;;;4.82;100.00;98300.19;5056704;28;20450;-77
2023/12/20 08:16:45;;;;;;;3.30;1.40;;;4.30;99.90;;;4.85;100.00;98307.69;5058596;28;20448;-77
2023/12/20 08:19:13;;;;;;;3.73;1.93;;;4.30;99.90;;;4.87;100.00;98295.38;5056884;28;20472;-78
2023/12/20 08:21:43;;;;;;;5.27;1.50;;;4.30;99.90;;;4.89;100.00;98301.25;5056462;28;20464;-77
2023/12/20 08:24:12;;;;;;;9.03;1.40;;;4.40;99.90;;;4.92;100.00;98304.38;5054144;28;20999;-77
2023/12/20 08:26:41;;;;;;;6.83;1.80;;;4.40;99.90;;;4.93;100.00;98305.97;5054056;28;20478;-77
2023/12/20 08:29:09;;;;;;;3.80;1.47;;;4.40;99.90;;;4.95;100.00;98313.63;5053015;28;20527;-76
2023/12/20 08:31:38;;;;;;;6.30;1.70;;;4.40;99.90;;;4.98;100.00;98302.97;5053925;28;20868;-77
2023/12/20 08:34:06;;;;;;;3.10;1.50;;;4.40;99.90;;;5.01;100.00;98297.47;5054091;28;20456;-77
2023/12/20 08:36:36;;;;;;;9.03;1.97;;;4.60;99.90;;;5.02;100.00;98296.53;5054829;28;20491;-77
2023/12/20 08:39:08;;;;;;;3.77;1.23;;;4.50;99.90;;;5.04;100.00;98294.59;5053278;28;20471;-77
2023/12/20 08:41:37;;;;;;;5.27;1.90;;;4.60;99.90;;;5.07;100.00;98283.94;5054406;28;20496;-76
2023/12/20 08:44:05;;;;;;;5.60;1.70;;;4.60;99.90;;;5.12;100.00;98284.31;5053021;28;20466;-77
2023/12/20 08:46:34;;;;;;;11.70;1.83;;;4.70;99.90;;;5.12;100.00;98289.50;5055151;28;20463;-77
2023/12/20 08:49:03;;;;;;;4.47;1.73;;;4.70;99.90;;;5.17;100.00;98291.66;5055596;28;20469;-78
2023/12/20 08:51:32;;;;;;;7.10;1.70;;;4.80;99.90;;;5.18;100.00;98293.28;5056717;28;20941;-77
2023/12/20 08:54:01;;;;;;;3.30;1.70;;;4.80;99.90;;;5.20;100.00;98292.19;5055964;28;20476;-78
2023/12/20 08:56:31;;;;;;;7.30;1.73;;;4.80;99.90;;;5.23;100.00;98289.31;5056312;28;20548;-77
2023/12/20 08:59:02;;;;;;;4.17;1.40;;;4.90;99.90;;;5.28;100.00;98296.63;5055142;28;20457;-78
2023/12/20 09:01:30;;;;;;;6.10;1.60;;;4.90;99.90;;;5.31;100.00;98299.72;5053570;28;20459;-78
2023/12/20 09:04:02;;;;;;;3.23;1.40;;;4.90;99.90;;;5.33;100.00;98307.38;5054182;28;20471;-77
2023/12/20 09:06:30;;;;;;;8.17;1.53;;;4.90;99.90;;;5.35;100.00;98298.47;5053965;28;20910;-77
2023/12/20 09:08:59;;;;;;;4.10;1.60;;;5.00;99.90;;;5.39;100.00;98310.19;5053257;28;20468;-77
2023/12/20 09:11:27;;;;;;;7.70;2.80;;;4.90;99.90;;;5.43;100.00;98315.88;5055477;28;20465;-77
2023/12/20 09:13:58;;;;;;;3.70;1.63;;;5.00;99.90;;;5.46;100.00;98313.00;5054242;28;20473;-77
2023/12/20 09:16:27;;;;;;;5.43;1.83;;;4.90;99.90;;;5.48;100.00;98314.47;5054438;28;20457;-77
2023/12/20 09:18:55;;;;;;;2.07;1.53;;;5.10;99.90;;;5.48;100.00;98317.06;5055323;28;20552;-78
2023/12/20 09:21:24;;;;;;;7.73;1.73;;;5.10;99.90;;;5.51;100.00;98310.78;5054467;28;20468;-77
2023/12/20 09:23:53;;;;;;;6.43;2.30;;;5.10;99.90;;;5.52;100.00;98321.00;5052864;28;20469;-78
2023/12/20 09:26:21;;;;;;;7.63;1.50;;;5.10;99.90;;;5.54;100.00;98300.13;5053785;28;20496;-78
2023/12/20 09:28:50;;;;;;;7.23;2.27;;;5.10;99.90;;;5.57;100.00;98312.78;5052947;28;20966;-78
2023/12/20 09:31:20;;;;;;;1.70;1.33;;;5.10;99.90;;;5.61;100.00;98300.31;5052228;28;20883;-78
2023/12/20 09:33:48;;;;;;;4.17;1.50;;;5.20;99.90;;;5.65;100.00;98305.06;5055366;28;20485;-77
2023/12/20 09:36:18;;;;;;;16.30;2.17;;;5.20;99.90;;;5.66;100.00;98303.31;5052931;28;20461;-77
2023/12/20 09:38:46;;;;;;;6.53;2.10;;;5.30;99.90;;;5.65;100.00;98312.03;5054503;28;20489;-78
2023/12/20 09:41:15;;;;;;;5.07;1.43;;;5.30;99.90;;;5.69;100.00;98313.38;5053383;28;20528;-77
2023/12/20 09:43:43;;;;;;;4.17;1.80;;;5.40;99.90;;;5.70;100.00;98308.03;5053308;28;20460;-77
2023/12/20 09:46:18;;;;;;;6.07;1.60;;;5.30;99.90;;;5.73;100.00;98299.94;5054095;28;20497;-77
2023/12/20 09:48:48;;;;;;;8.27;2.20;;;5.40;99.90;;;5.75;100.00;98312.78;5053870;28;20483;-79
2023/12/20 09:51:17;;;;;;;4.30;1.73;;;5.40;99.90;;;5.76;100.00;98319.59;5054998;28;20843;-77
2023/12/20 09:53:48;;;;;;;3.83;1.50;;;5.40;99.90;;;5.80;100.00;98313.13;5052976;28;20488;-78
2023/12/20 09:56:17;;;;;;;6.60;2.40;;;5.40;99.90;;;5.80;100.00;98320.91;5054926;28;20474;-78
2023/12/20 09:58:45;;;;;;;3.43;1.37;;;5.40;99.90;;;5.81;100.00;98317.34;5053934;28;20472;-77
2023/12/20 10:01:15;;;;;;;1.87;1.47;;;5.40;99.90;;;5.82;100.00;98324.19;5051963;28;20836;-77
2023/12/20 10:03:45;;;;;;;5.80;1.57;;;5.30;99.90;;;5.84;100.00;98311.84;5053937;28;20472;-77
2023/12/20 10:06:15;;;;;;;4.50;1.90;;;5.40;99.90;;;5.88;100.00;98314.03;5053902;28;20564;-78
2023/12/20 10:08:44;;;;;;;7.13;1.70;;;5.40;99.90;;;5.89;100.00;98318.28;5051834;28;21024;-77
2023/12/20 10:11:13;;;;;;;3.87;1.70;;;5.40;99.90;;;5.93;100.00;98324.78;5052034;28;21270;-77
2023/12/20 10:13:42;;;;;;;4.57;2.83;;;5.40;99.90;;;5.91;100.00;98310.31;5052353;28;20831;-78
2023/12/20 10:16:11;;;;;;;4.77;2.33;;;5.40;99.90;;;5.93;100.00;98311.00;5055539;28;20464;-77
2023/12/20 10:18:40;;;;;;;4.07;1.53;;;5.50;99.90;;;5.93;100.00;98308.41;5054798;28;20964;-77
2023/12/20 10:21:09;;;;;;;3.03;1.37;;;5.40;99.90;;;5.96;100.00;98305.50;5055990;28;20455;-77
2023/12/20 10:23:40;;;;;;;4.27;1.97;;;5.50;99.90;;;6.01;100.00;98308.44;5054806;28;20445;-77
2023/12/20 10:26:09;;;;;;;6.87;2.00;;;5.60;99.90;;;6.00;100.00;98306.84;5058358;28;20500;-78
2023/12/20 10:28:38;;;;;;;11.87;2.07;;;5.50;99.90;;;6.00;100.00;98306.84;5057976;28;20459;-77
2023/12/20 10:31:07;;;;;;;3.27;1.60;;;5.60;99.90;;;6.01;100.00;98305.84;5059188;28;20463;-77
2023/12/20 10:33:36;;;;;;;2.13;1.50;;;5.50;99.90;;;6.02;100.00;98297.94;5057187;28;20512;-77